Time;durP1;ratioP1;P1;durP2;ratioP2;P2;SDS_P1;SDS_P2;PMS_P1;PMS_P2;Temp;Humidity;BMP_temperature;BMP_pressure;BME280_temperature;BME280_humidity;BME280_pressure;Samples;Min_cycle;Max_cycle;Signal;HPM_P1;HPM_P2
2022/09/01 00:01:43;;;;;;;;;;;22.10;99.90;;;;;;5083476;28;20401;-77
2022/09/01 00:04:12;;;;;;;;;;;22.10;99.90;;;;;;5087849;28;19909;-78
2022/09/01 00:06:39;;;;;;;;;;;22.10;99.90;;;;;;5065602;28;19912;-77
2022/09/01 00:09:12;;;;;;;;;;;22.20;99.90;;;;;;5069166;28;20370;-78
2022/09/01 00:11:39;;;;;;;;;;;22.20;99.90;;;;;;5068760;28;19912;-78
2022/09/01 00:14:06;;;;;;;;;;;22.10;99.90;;;;;;5070194;28;19915;-78
2022/09/01 00:16:32;;;;;;;;;;;22.10;99.90;;;;;;5057725;28;19909;-78
2022/09/01 00:18:57;;;;;;;;;;;22.10;99.90;;;;;;5071581;28;19931;-79
2022/09/01 00:21:25;;;;;;;;;;;22.10;99.90;;;;;;5057799;28;19958;-79
2022/09/01 00:23:51;;;;;;;;;;;22.00;99.90;;;;;;5071820;28;19912;-80
2022/09/01 00:26:17;;;;;;;;;;;21.90;99.90;;;;;;5074307;28;20415;-80
2022/09/01 00:28:42;;;;;;;;;;;21.80;99.90;;;;;;5075413;28;19924;-79
2022/09/01 00:31:09;;;;;;;;;;;21.90;99.90;;;;;;5074580;28;20059;-80
2022/09/01 00:33:35;;;;;;;;;;;21.90;99.90;;;;;;5071700;28;19908;-79
2022/09/01 00:36:02;;;;;;;;;;;21.80;99.90;;;;;;5073489;28;19936;-80
2022/09/01 00:38:27;;;;;;;;;;;21.70;99.90;;;;;;5075050;28;19927;-80
2022/09/01 00:40:53;;;;;;;;;;;21.70;99.90;;;;;;5072117;28;19909;-78
2022/09/01 00:43:37;;;;;;;;;;;21.70;99.90;;;;;;5079158;28;19912;-79
2022/09/01 00:46:04;;;;;;;;;;;21.80;99.90;;;;;;5068489;28;20046;-78
2022/09/01 00:48:30;;;;;;;;;;;21.80;99.90;;;;;;5070301;28;20563;-79
2022/09/01 00:50:56;;;;;;;;;;;21.80;99.90;;;;;;5072167;28;19918;-80
2022/09/01 00:53:22;;;;;;;;;;;21.60;99.90;;;;;;5066105;28;19919;-79
2022/09/01 00:55:47;;;;;;;;;;;21.60;99.90;;;;;;5070139;28;19995;-78
2022/09/01 00:58:13;;;;;;;;;;;21.60;99.90;;;;;;5068902;28;19916;-79
2022/09/01 01:00:39;;;;;;;;;;;21.70;99.90;;;;;;5066378;28;20011;-79
2022/09/01 01:03:09;;;;;;;;;;;21.60;99.90;;;;;;5066227;28;19908;-80
2022/09/01 01:05:39;;;;;;;;;;;21.60;99.90;;;;;;5068955;28;19912;-79
2022/09/01 01:08:06;;;;;;;;;;;21.50;99.90;;;;;;5067985;28;20263;-80
2022/09/01 01:10:35;;;;;;;;;;;21.50;99.90;;;;;;5069821;28;20454;-79
2022/09/01 01:13:03;;;;;;;;;;;21.50;99.90;;;;;;5048008;28;20003;-78
2022/09/01 01:15:29;;;;;;;;;;;21.50;99.90;;;;;;5069744;28;19920;-79
2022/09/01 01:17:55;;;;;;;;;;;21.40;99.90;;;;;;5070512;28;19920;-79
2022/09/01 01:23:23;;;;;;;;;;;21.30;99.90;;;;;;5071236;28;19987;-80
2022/09/01 01:25:50;;;;;;;;;;;21.20;99.90;;;;;;5071356;28;19979;-79
2022/09/01 01:28:18;;;;;;;;;;;21.20;99.90;;;;;;5069104;28;19909;-79
2022/09/01 01:30:52;;;;;;;;;;;21.20;99.90;;;;;;5070439;28;20224;-80
2022/09/01 01:33:19;;;;;;;;;;;21.20;99.90;;;;;;5075726;28;19919;-81
2022/09/01 01:35:45;;;;;;;;;;;21.10;99.90;;;;;;5075908;28;19923;-80
2022/09/01 01:38:13;;;;;;;;;;;21.20;99.90;;;;;;5073562;28;19909;-79
2022/09/01 01:40:40;;;;;;;;;;;21.20;99.90;;;;;;5052233;28;19991;-81
2022/09/01 01:43:06;;;;;;;;;;;21.20;99.90;;;;;;5072305;28;19912;-80
2022/09/01 01:45:31;;;;;;;;;;;21.20;99.90;;;;;;5072780;28;19915;-79
2022/09/01 01:47:57;;;;;;;;;;;21.20;99.90;;;;;;5089489;28;19904;-79
2022/09/01 01:50:25;;;;;;;;;;;21.20;99.90;;;;;;5073725;28;19943;-79
2022/09/01 01:52:51;;;;;;;;;;;21.20;99.90;;;;;;5088002;28;19909;-79
2022/09/01 01:55:18;;;;;;;;;;;21.20;99.90;;;;;;5073245;28;20450;-79
2022/09/01 01:57:49;;;;;;;;;;;21.10;99.90;;;;;;5090610;28;19912;-79
2022/09/01 02:00:19;;;;;;;;;;;21.20;99.90;;;;;;5074634;28;20453;-78
2022/09/01 02:02:51;;;;;;;;;;;21.10;99.90;;;;;;5057641;28;19943;-79
2022/09/01 02:05:20;;;;;;;;;;;21.10;99.90;;;;;;5074641;28;19969;-80
2022/09/01 02:07:46;;;;;;;;;;;21.00;99.90;;;;;;5074282;28;19908;-79
2022/09/01 02:10:12;;;;;;;;;;;21.00;99.90;;;;;;5073352;28;19912;-80
2022/09/01 02:12:42;;;;;;;;;;;21.00;99.90;;;;;;5074172;28;19916;-80
2022/09/01 02:15:11;;;;;;;;;;;20.70;99.90;;;;;;5074234;28;19908;-78
2022/09/01 02:17:38;;;;;;;;;;;20.10;99.90;;;;;;5052964;28;19991;-79
2022/09/01 02:20:05;;;;;;;;;;;19.50;99.90;;;;;;5067592;28;19942;-80
2022/09/01 02:22:31;;;;;;;;;;;19.20;99.90;;;;;;5068723;28;19908;-79
2022/09/01 02:24:59;;;;;;;;;;;19.00;99.90;;;;;;5048138;28;19924;-78
2022/09/01 02:27:25;;;;;;;;;;;18.80;99.90;;;;;;5070733;28;19917;-79
2022/09/01 02:29:54;;;;;;;;;;;18.70;99.90;;;;;;5068962;28;19934;-78
2022/09/01 02:32:20;;;;;;;;;;;18.70;99.90;;;;;;5053165;28;19908;-79
2022/09/01 02:34:52;;;;;;;;;;;18.60;99.90;;;;;;5050704;28;19963;-78
2022/09/01 02:37:24;;;;;;;;;;;18.30;99.90;;;;;;5051748;28;20022;-80
2022/09/01 02:39:55;;;;;;;;;;;18.10;99.90;;;;;;5068506;28;20010;-78
2022/09/01 02:42:26;;;;;;;;;;;18.20;99.90;;;;;;5072865;28;19912;-80
2022/09/01 02:44:52;;;;;;;;;;;18.20;99.90;;;;;;5080270;28;19904;-79
2022/09/01 02:47:22;;;;;;;;;;;18.00;99.90;;;;;;5053428;28;19912;-80
2022/09/01 02:49:50;;;;;;;;;;;17.90;99.90;;;;;;5053279;28;20012;-78
2022/09/01 02:52:19;;;;;;;;;;;17.90;99.90;;;;;;5069487;28;19994;-80
2022/09/01 02:54:47;;;;;;;;;;;17.90;99.90;;;;;;5068562;28;19908;-79
2022/09/01 02:57:13;;;;;;;;;;;18.00;99.90;;;;;;5051307;28;19908;-79
2022/09/01 02:59:40;;;;;;;;;;;18.00;99.90;;;;;;5070032;28;20342;-79
2022/09/01 03:02:07;;;;;;;;;;;18.20;99.90;;;;;;5056255;28;19908;-79
2022/09/01 03:04:33;;;;;;;;;;;18.20;99.90;;;;;;5056890;28;19978;-81
2022/09/01 03:07:00;;;;;;;;;;;18.10;99.90;;;;;;5060064;28;19954;-80
2022/09/01 03:09:28;;;;;;;;;;;18.20;99.90;;;;;;5053598;28;20260;-79
2022/09/01 03:11:54;;;;;;;;;;;18.20;99.90;;;;;;5073453;28;19971;-79
2022/09/01 03:14:21;;;;;;;;;;;18.30;99.90;;;;;;5068098;28;20014;-78
2022/09/01 03:16:47;;;;;;;;;;;18.30;99.90;;;;;;5071886;28;20255;-79
2022/09/01 03:19:13;;;;;;;;;;;18.30;99.90;;;;;;5072711;28;20006;-80
2022/09/01 03:21:39;;;;;;;;;;;18.50;99.90;;;;;;5074401;28;19913;-80
2022/09/01 03:24:14;;;;;;;;;;;18.40;99.90;;;;;;5056844;28;19919;-80
2022/09/01 03:26:42;;;;;;;;;;;18.40;99.90;;;;;;5056345;28;20102;-80
2022/09/01 03:29:08;;;;;;;;;;;18.40;99.90;;;;;;5060922;28;19916;-80
2022/09/01 03:31:35;;;;;;;;;;;18.50;99.90;;;;;;5071970;28;19908;-79
2022/09/01 03:34:02;;;;;;;;;;;18.50;99.90;;;;;;5062032;28;19908;-80
2022/09/01 03:36:28;;;;;;;;;;;18.50;99.90;;;;;;5079880;28;19970;-80
2022/09/01 03:38:54;;;;;;;;;;;18.50;99.90;;;;;;5059738;28;19917;-79
2022/09/01 03:41:21;;;;;;;;;;;18.60;99.90;;;;;;5077663;28;20403;-80
2022/09/01 03:43:47;;;;;;;;;;;18.50;99.90;;;;;;5079457;28;19912;-80
2022/09/01 03:46:23;;;;;;;;;;;18.70;99.90;;;;;;5075440;28;20453;-79
2022/09/01 03:48:53;;;;;;;;;;;18.60;99.90;;;;;;5071342;28;19912;-80
2022/09/01 03:51:21;;;;;;;;;;;18.60;99.90;;;;;;5072880;28;20388;-80
2022/09/01 03:53:47;;;;;;;;;;;18.60;99.90;;;;;;5078691;28;19913;-80
2022/09/01 03:56:14;;;;;;;;;;;18.60;99.90;;;;;;5060716;28;19971;-79
2022/09/01 03:58:44;;;;;;;;;;;18.70;99.90;;;;;;5070345;28;19967;-78
2022/09/01 04:01:10;;;;;;;;;;;18.70;99.90;;;;;;5073622;28;19923;-80
2022/09/01 04:03:40;;;;;;;;;;;18.70;99.90;;;;;;5071660;28;19916;-79
2022/09/01 04:06:07;;;;;;;;;;;18.70;99.90;;;;;;5046173;28;19913;-80
2022/09/01 04:08:32;;;;;;;;;;;18.90;99.90;;;;;;5067814;28;19912;-80
2022/09/01 04:11:01;;;;;;;;;;;18.90;99.90;;;;;;5053397;28;20423;-80
2022/09/01 04:13:29;;;;;;;;;;;18.80;99.90;;;;;;5049266;28;19954;-79
2022/09/01 04:15:57;;;;;;;;;;;18.90;99.90;;;;;;5068788;28;19919;-80
2022/09/01 04:18:23;;;;;;;;;;;18.80;99.90;;;;;;5054667;28;19934;-79
2022/09/01 04:20:55;;;;;;;;;;;18.80;99.90;;;;;;5068593;28;19912;-79
2022/09/01 04:23:32;;;;;;;;;;;18.80;99.90;;;;;;5052027;28;19936;-79
2022/09/01 04:26:07;;;;;;;;;;;18.80;99.90;;;;;;5068521;28;20005;-80
2022/09/01 04:28:40;;;;;;;;;;;18.80;99.90;;;;;;5055040;28;19920;-79
2022/09/01 04:31:09;;;;;;;;;;;18.70;99.90;;;;;;5070228;28;19908;-78
2022/09/01 04:33:48;;;;;;;;;;;18.80;99.90;;;;;;5051639;28;19908;-80
2022/09/01 04:36:18;;;;;;;;;;;18.80;99.90;;;;;;5068063;28;19915;-79
2022/09/01 04:38:44;;;;;;;;;;;18.80;99.90;;;;;;5068973;28;20154;-79
2022/09/01 04:41:16;;;;;;;;;;;18.80;99.90;;;;;;5068216;28;19959;-77
2022/09/01 04:43:46;;;;;;;;;;;18.70;99.90;;;;;;5067189;28;20270;-79
2022/09/01 04:46:15;;;;;;;;;;;18.80;99.90;;;;;;5043098;28;20339;-77
2022/09/01 04:48:43;;;;;;;;;;;18.90;99.90;;;;;;5063066;28;19987;-79
2022/09/01 04:51:11;;;;;;;;;;;18.90;99.90;;;;;;5064334;28;19916;-79
2022/09/01 04:53:40;;;;;;;;;;;19.00;99.90;;;;;;5065288;28;20259;-79
2022/09/01 04:56:06;;;;;;;;;;;19.00;99.90;;;;;;5077947;28;20345;-80
2022/09/01 04:58:32;;;;;;;;;;;19.00;99.90;;;;;;5064022;28;19904;-79
2022/09/01 05:00:59;;;;;;;;;;;19.10;99.90;;;;;;5071341;28;19919;-80
2022/09/01 05:03:25;;;;;;;;;;;19.10;99.90;;;;;;5065102;28;19908;-79
2022/09/01 05:05:52;;;;;;;;;;;19.20;99.90;;;;;;5067041;28;20018;-80
2022/09/01 05:08:21;;;;;;;;;;;19.20;99.90;;;;;;5047767;28;19912;-78
2022/09/01 05:10:52;;;;;;;;;;;19.20;99.90;;;;;;5074284;28;19958;-78
2022/09/01 05:13:18;;;;;;;;;;;19.20;99.90;;;;;;5064796;28;19919;-78
2022/09/01 05:15:45;;;;;;;;;;;19.20;99.90;;;;;;5065216;28;19920;-78
2022/09/01 05:18:12;;;;;;;;;;;19.20;99.90;;;;;;5082580;28;19922;-78
2022/09/01 05:20:40;;;;;;;;;;;19.30;99.90;;;;;;5076153;28;19908;-79
2022/09/01 05:23:07;;;;;;;;;;;19.30;99.90;;;;;;5065963;28;20328;-80
2022/09/01 05:25:40;;;;;;;;;;;19.40;99.90;;;;;;5068571;28;19936;-80
2022/09/01 05:28:08;;;;;;;;;;;19.50;99.90;;;;;;5066144;28;20386;-77
2022/09/01 05:30:35;;;;;;;;;;;19.50;99.90;;;;;;5059679;28;19970;-77
2022/09/01 05:33:01;;;;;;;;;;;19.60;99.90;;;;;;5062938;28;20298;-77
2022/09/01 05:35:28;;;;;;;;;;;19.60;99.90;;;;;;5058175;28;19909;-77
2022/09/01 05:37:54;;;;;;;;;;;19.70;99.90;;;;;;5060595;28;19916;-78
2022/09/01 05:40:20;;;;;;;;;;;19.70;99.90;;;;;;5062451;28;19915;-77
2022/09/01 05:42:46;;;;;;;;;;;19.70;99.90;;;;;;5061887;28;20576;-77
2022/09/01 05:45:13;;;;;;;;;;;19.70;99.90;;;;;;5055475;28;20012;-77
2022/09/01 05:47:39;;;;;;;;;;;19.80;99.90;;;;;;5071041;28;19915;-77
2022/09/01 05:50:06;;;;;;;;;;;19.70;99.90;;;;;;5076967;28;19912;-77
2022/09/01 05:52:32;;;;;;;;;;;19.80;99.90;;;;;;5073517;28;19986;-78
2022/09/01 05:54:59;;;;;;;;;;;19.80;99.90;;;;;;5067576;28;20021;-77
2022/09/01 05:57:25;;;;;;;;;;;19.80;99.90;;;;;;5068420;28;19919;-77
2022/09/01 05:59:52;;;;;;;;;;;19.80;99.90;;;;;;5065219;28;20317;-79
2022/09/01 06:02:20;;;;;;;;;;;19.80;99.90;;;;;;5073155;28;19908;-77
2022/09/01 06:04:46;;;;;;;;;;;19.90;99.90;;;;;;5065642;28;19998;-78
2022/09/01 06:07:13;;;;;;;;;;;19.80;99.90;;;;;;5068349;28;19999;-76
2022/09/01 06:09:40;;;;;;;;;;;19.80;99.90;;;;;;5052817;28;20389;-80
2022/09/01 06:12:06;;;;;;;;;;;19.90;99.90;;;;;;5067947;28;19908;-79
2022/09/01 06:14:31;;;;;;;;;;;19.90;99.90;;;;;;5068114;28;20273;-76
2022/09/01 06:16:57;;;;;;;;;;;19.90;99.90;;;;;;5069333;28;19911;-78
2022/09/01 06:19:23;;;;;;;;;;;19.90;99.90;;;;;;5066341;28;19936;-78
2022/09/01 06:21:48;;;;;;;;;;;19.80;99.90;;;;;;5067851;28;19988;-77
2022/09/01 06:24:14;;;;;;;;;;;19.80;99.90;;;;;;5064876;28;19913;-77
2022/09/01 06:26:40;;;;;;;;;;;20.00;99.90;;;;;;5067231;28;19944;-79
2022/09/01 06:29:09;;;;;;;;;;;20.00;99.90;;;;;;5051885;28;19920;-78
2022/09/01 06:31:38;;;;;;;;;;;20.00;99.90;;;;;;5070648;28;19908;-78
2022/09/01 06:34:04;;;;;;;;;;;20.10;99.90;;;;;;5077619;28;19904;-76
2022/09/01 06:36:35;;;;;;;;;;;20.10;99.90;;;;;;5070246;28;20370;-78
2022/09/01 06:39:01;;;;;;;;;;;20.10;99.90;;;;;;5068063;28;19916;-79
2022/09/01 06:41:27;;;;;;;;;;;20.20;99.90;;;;;;5071836;28;19945;-78
2022/09/01 06:43:53;;;;;;;;;;;20.30;99.90;;;;;;5066337;28;19908;-77
2022/09/01 06:46:20;;;;;;;;;;;20.40;99.90;;;;;;5066778;28;20054;-79
2022/09/01 06:48:46;;;;;;;;;;;20.30;99.90;;;;;;5081172;28;20428;-80
2022/09/01 06:51:13;;;;;;;;;;;20.30;99.90;;;;;;5063380;28;19913;-79
2022/09/01 06:53:39;;;;;;;;;;;20.40;99.90;;;;;;5087363;28;19984;-77
2022/09/01 06:56:05;;;;;;;;;;;20.50;99.90;;;;;;5094461;28;19908;-76
2022/09/01 06:58:32;;;;;;;;;;;20.40;99.90;;;;;;5069457;28;20377;-78
2022/09/01 07:00:57;;;;;;;;;;;20.50;99.90;;;;;;5055053;28;19959;-77
2022/09/01 07:03:24;;;;;;;;;;;20.60;99.90;;;;;;5048630;28;19912;-77
2022/09/01 07:05:50;;;;;;;;;;;20.60;99.90;;;;;;5080477;28;19943;-77
2022/09/01 07:08:18;;;;;;;;;;;20.70;99.90;;;;;;5071348;28;19909;-72
2022/09/01 07:10:45;;;;;;;;;;;20.70;99.90;;;;;;5047111;28;19919;-73
2022/09/01 07:13:21;;;;;;;;;;;20.80;99.90;;;;;;5071937;28;19955;-70
2022/09/01 07:15:48;;;;;;;;;;;20.80;99.90;;;;;;5070975;28;19916;-70
2022/09/01 07:18:16;;;;;;;;;;;20.80;99.90;;;;;;5072099;28;19943;-71
2022/09/01 07:20:42;;;;;;;;;;;20.70;99.90;;;;;;5067902;28;19916;-70
2022/09/01 07:23:08;;;;;;;;;;;20.70;99.90;;;;;;5077787;28;20305;-69
2022/09/01 07:25:37;;;;;;;;;;;20.80;99.90;;;;;;5077240;28;19943;-69
2022/09/01 07:28:04;;;;;;;;;;;20.80;99.90;;;;;;5074875;28;19912;-69
2022/09/01 07:30:30;;;;;;;;;;;20.70;99.90;;;;;;5066564;28;19935;-68
2022/09/01 07:32:56;;;;;;;;;;;20.80;99.90;;;;;;5074046;28;19914;-69
2022/09/01 07:35:22;;;;;;;;;;;20.80;99.90;;;;;;5079591;28;20200;-68
2022/09/01 07:37:49;;;;;;;;;;;20.90;99.90;;;;;;5089036;28;19942;-70
2022/09/01 07:40:17;;;;;;;;;;;20.90;99.90;;;;;;5074823;28;19986;-69
2022/09/01 07:42:43;;;;;;;;;;;21.00;99.90;;;;;;5070912;28;19936;-70
2022/09/01 07:45:11;;;;;;;;;;;21.10;99.90;;;;;;5078919;28;19923;-70
2022/09/01 07:47:37;;;;;;;;;;;21.10;99.90;;;;;;5088341;28;19904;-69
2022/09/01 07:50:07;;;;;;;;;;;21.20;99.90;;;;;;5080535;28;19912;-68
2022/09/01 07:52:41;;;;;;;;;;;21.10;99.90;;;;;;5076867;28;19908;-69
2022/09/01 07:55:12;;;;;;;;;;;21.00;99.90;;;;;;5073052;28;20239;-69
2022/09/01 07:57:41;;;;;;;;;;;20.80;99.90;;;;;;5075542;28;19943;-69
2022/09/01 08:00:08;;;;;;;;;;;20.90;99.90;;;;;;5079392;28;20041;-67
2022/09/01 08:02:35;;;;;;;;;;;20.90;99.90;;;;;;5067198;28;19911;-68
2022/09/01 08:05:00;;;;;;;;;;;21.00;99.90;;;;;;5072162;28;19929;-68
2022/09/01 08:07:26;;;;;;;;;;;21.10;99.90;;;;;;5086881;28;19915;-69
2022/09/01 08:09:52;;;;;;;;;;;21.10;99.90;;;;;;5075329;28;19931;-66
2022/09/01 08:12:17;;;;;;;;;;;21.20;99.90;;;;;;5071896;28;19908;-69
2022/09/01 08:14:43;;;;;;;;;;;21.10;99.90;;;;;;5071090;28;19909;-69
2022/09/01 08:17:08;;;;;;;;;;;21.20;99.90;;;;;;5068539;28;20511;-68
2022/09/01 08:19:35;;;;;;;;;;;21.40;99.90;;;;;;5048918;28;20349;-68
2022/09/01 08:22:00;;;;;;;;;;;21.40;99.90;;;;;;5071737;28;19904;-68
2022/09/01 08:24:26;;;;;;;;;;;21.50;99.90;;;;;;5052814;28;19919;-69
2022/09/01 08:26:51;;;;;;;;;;;21.50;99.90;;;;;;5071450;28;19916;-67
2022/09/01 08:29:17;;;;;;;;;;;21.40;99.90;;;;;;5070111;28;19920;-67
2022/09/01 08:31:45;;;;;;;;;;;21.20;99.90;;;;;;5074704;28;20382;-69
2022/09/01 08:34:11;;;;;;;;;;;21.30;99.90;;;;;;5070729;28;20369;-69
2022/09/01 08:36:37;;;;;;;;;;;21.30;99.90;;;;;;5071131;28;19911;-70
2022/09/01 08:39:02;;;;;;;;;;;21.30;99.90;;;;;;5071982;28;20011;-67
2022/09/01 08:41:42;;;;;;;;;;;21.40;99.90;;;;;;5076761;28;20290;-67
2022/09/01 08:44:25;;;;;;;;;;;21.40;99.90;;;;;;5066281;28;19971;-68
2022/09/01 08:46:58;;;;;;;;;;;21.50;99.90;;;;;;5071798;28;19924;-69
2022/09/01 08:49:24;;;;;;;;;;;21.60;99.90;;;;;;5068231;28;20392;-67
2022/09/01 08:52:05;;;;;;;;;;;21.70;99.90;;;;;;5070390;28;19908;-68
2022/09/01 08:54:55;;;;;;;;;;;21.60;99.90;;;;;;5070791;28;19943;-68
2022/09/01 08:57:40;;;;;;;;;;;21.70;99.90;;;;;;5068582;28;19935;-66
2022/09/01 09:00:09;;;;;;;;;;;21.60;99.90;;;;;;5070406;28;19913;-68
2022/09/01 09:02:48;;;;;;;;;;;21.60;99.90;;;;;;5067788;28;19915;-68
2022/09/01 09:05:13;;;;;;;;;;;21.60;99.90;;;;;;5076550;28;19915;-69
2022/09/01 09:07:39;;;;;;;;;;;21.70;99.90;;;;;;5070813;28;19909;-68
2022/09/01 09:10:15;;;;;;;;;;;21.80;99.90;;;;;;5069302;28;19912;-70
2022/09/01 09:12:51;;;;;;;;;;;21.90;99.90;;;;;;5068480;28;19908;-68
2022/09/01 09:15:30;;;;;;;;;;;21.90;99.90;;;;;;5063734;28;19908;-68
2022/09/01 09:18:00;;;;;;;;;;;22.00;99.90;;;;;;5071045;28;19904;-69
2022/09/01 09:20:27;;;;;;;;;;;21.80;99.90;;;;;;5068476;28;19916;-68
2022/09/01 09:22:53;;;;;;;;;;;21.80;99.90;;;;;;5069490;28;20282;-67
2022/09/01 09:25:19;;;;;;;;;;;21.70;99.90;;;;;;5063411;28;21278;-68
2022/09/01 09:27:46;;;;;;;;;;;21.70;99.90;;;;;;5064426;28;19909;-69
2022/09/01 09:30:22;;;;;;;;;;;21.80;99.90;;;;;;5055162;28;20333;-67
2022/09/01 09:32:54;;;;;;;;;;;21.80;99.90;;;;;;5068268;28;19918;-68
2022/09/01 09:35:30;;;;;;;;;;;21.90;99.90;;;;;;5047603;28;19912;-69
2022/09/01 09:38:17;;;;;;;;;;;21.80;99.90;;;;;;5090703;28;19904;-68
2022/09/01 09:40:57;;;;;;;;;;;21.90;99.90;;;;;;5075102;28;19905;-67
2022/09/01 09:43:23;;;;;;;;;;;21.90;99.90;;;;;;5055079;28;19909;-67
2022/09/01 09:45:49;;;;;;;;;;;22.10;99.90;;;;;;5075398;28;19908;-68
2022/09/01 09:48:28;;;;;;;;;;;22.20;99.90;;;;;;5079874;28;20362;-68
2022/09/01 09:50:54;;;;;;;;;;;22.20;99.90;;;;;;5092438;28;19912;-66
2022/09/01 09:53:31;;;;;;;;;;;22.20;99.90;;;;;;5076783;28;19958;-68
2022/09/01 09:55:58;;;;;;;;;;;22.20;99.90;;;;;;5070797;28;19908;-68
2022/09/01 09:58:26;;;;;;;;;;;22.40;99.90;;;;;;5073936;28;19908;-68
2022/09/01 10:01:03;;;;;;;;;;;22.50;99.90;;;;;;5065267;28;19911;-67
2022/09/01 10:03:41;;;;;;;;;;;22.60;99.90;;;;;;5072043;28;20370;-68
2022/09/01 10:06:26;;;;;;;;;;;22.90;99.90;;;;;;5070766;28;19904;-67
2022/09/01 10:08:52;;;;;;;;;;;22.70;99.90;;;;;;5053887;28;19912;-67
2022/09/01 10:11:26;;;;;;;;;;;22.50;99.90;;;;;;5086281;28;19907;-69
2022/09/01 10:13:52;;;;;;;;;;;22.50;99.90;;;;;;5073805;28;20274;-68
2022/09/01 10:16:23;;;;;;;;;;;22.60;99.90;;;;;;5078460;28;20529;-68
2022/09/01 10:18:50;;;;;;;;;;;22.60;99.90;;;;;;5074557;28;20370;-69
2022/09/01 10:21:21;;;;;;;;;;;22.60;99.90;;;;;;5057313;28;19908;-67
2022/09/01 10:23:46;;;;;;;;;;;22.60;99.90;;;;;;5078081;28;19947;-67
2022/09/01 10:26:12;;;;;;;;;;;22.60;99.90;;;;;;5080725;28;19947;-68
2022/09/01 10:28:42;;;;;;;;;;;22.80;99.90;;;;;;5080101;28;19923;-67
2022/09/01 10:31:09;;;;;;;;;;;22.70;99.90;;;;;;5076696;28;19968;-68
2022/09/01 10:33:34;;;;;;;;;;;22.70;99.90;;;;;;5082656;28;19904;-67
2022/09/01 10:36:00;;;;;;;;;;;22.70;99.90;;;;;;5074041;28;20302;-67
2022/09/01 10:38:27;;;;;;;;;;;22.60;99.90;;;;;;5074172;28;19904;-68
2022/09/01 10:41:06;;;;;;;;;;;22.60;99.90;;;;;;5074228;28;19908;-68
2022/09/01 10:43:33;;;;;;;;;;;22.60;99.90;;;;;;5072886;28;19912;-67
2022/09/01 10:45:58;;;;;;;;;;;22.80;99.90;;;;;;5074150;28;19912;-67
2022/09/01 10:48:28;;;;;;;;;;;22.90;99.90;;;;;;5093482;28;20285;-68
2022/09/01 10:51:14;;;;;;;;;;;22.80;99.90;;;;;;5090514;28;19941;-69
2022/09/01 10:53:41;;;;;;;;;;;22.80;99.90;;;;;;5055236;28;19961;-68
2022/09/01 10:56:10;;;;;;;;;;;22.80;99.90;;;;;;5074482;28;20278;-68
2022/09/01 10:58:54;;;;;;;;;;;22.60;99.90;;;;;;5073349;28;20194;-67
2022/09/01 11:01:38;;;;;;;;;;;22.50;99.90;;;;;;5070608;28;19939;-68
2022/09/01 11:04:05;;;;;;;;;;;22.50;99.90;;;;;;5054440;28;20023;-68
2022/09/01 11:06:33;;;;;;;;;;;22.50;99.90;;;;;;5067314;28;19915;-69
2022/09/01 11:09:05;;;;;;;;;;;22.50;99.90;;;;;;5074368;28;19955;-69
2022/09/01 11:11:34;;;;;;;;;;;22.40;99.90;;;;;;5073029;28;19905;-68
2022/09/01 11:13:59;;;;;;;;;;;22.40;99.90;;;;;;5068636;28;20374;-69
2022/09/01 11:16:28;;;;;;;;;;;22.60;99.90;;;;;;5070574;28;19919;-68
2022/09/01 11:18:55;;;;;;;;;;;22.60;99.90;;;;;;5066356;28;19938;-68
2022/09/01 11:21:20;;;;;;;;;;;22.70;99.90;;;;;;5069698;28;19971;-67
2022/09/01 11:23:46;;;;;;;;;;;22.90;99.90;;;;;;5070247;28;19916;-70
2022/09/01 11:26:31;;;;;;;;;;;23.10;99.90;;;;;;5081266;28;19909;-68
2022/09/01 11:28:57;;;;;;;;;;;23.00;99.90;;;;;;5074311;28;20011;-68
2022/09/01 11:31:28;;;;;;;;;;;23.00;99.90;;;;;;5068450;28;19943;-69
2022/09/01 11:34:03;;;;;;;;;;;23.20;99.90;;;;;;5074640;28;20346;-69
2022/09/01 11:36:47;;;;;;;;;;;22.90;99.90;;;;;;5074071;28;19936;-67
2022/09/01 11:39:12;;;;;;;;;;;22.80;99.90;;;;;;5093796;28;20203;-68
2022/09/01 11:41:38;;;;;;;;;;;23.10;99.90;;;;;;5083263;28;19922;-68
2022/09/01 11:44:12;;;;;;;;;;;23.20;99.90;;;;;;5072009;28;19916;-67
2022/09/01 11:46:41;;;;;;;;;;;23.20;99.90;;;;;;5067237;28;19912;-69
2022/09/01 11:49:14;;;;;;;;;;;23.20;99.90;;;;;;5082133;28;19918;-68
2022/09/01 11:51:45;;;;;;;;;;;23.30;99.90;;;;;;5060058;28;19983;-67
2022/09/01 11:54:10;;;;;;;;;;;23.30;99.90;;;;;;5064301;28;19963;-67
2022/09/01 11:56:36;;;;;;;;;;;23.20;99.90;;;;;;5072645;28;19981;-67
2022/09/01 11:59:02;;;;;;;;;;;23.10;99.90;;;;;;5086175;28;19957;-69
2022/09/01 12:01:37;;;;;;;;;;;23.30;99.90;;;;;;5076940;28;20374;-67
2022/09/01 12:04:39;;;;;;;;;;;23.40;99.90;;;;;;5064391;28;19908;-68
2022/09/01 12:07:06;;;;;;;;;;;23.20;99.90;;;;;;4997822;28;19964;-68
2022/09/01 12:09:34;;;;;;;;;;;23.40;99.90;;;;;;5056770;28;20354;-67
2022/09/01 12:11:59;;;;;;;;;;;23.40;99.90;;;;;;5067115;28;20377;-67
2022/09/01 12:14:25;;;;;;;;;;;23.30;99.90;;;;;;5068446;28;20003;-66
2022/09/01 12:17:02;;;;;;;;;;;23.50;99.90;;;;;;5069600;28;19999;-68
2022/09/01 12:19:30;;;;;;;;;;;23.50;99.90;;;;;;5072468;28;19982;-69
2022/09/01 12:22:04;;;;;;;;;;;23.60;99.90;;;;;;5069114;28;20329;-65
2022/09/01 12:24:32;;;;;;;;;;;23.60;99.90;;;;;;5071410;28;19923;-69
2022/09/01 12:26:59;;;;;;;;;;;23.50;99.90;;;;;;5070635;28;19915;-66
2022/09/01 12:29:25;;;;;;;;;;;23.40;99.90;;;;;;5079152;28;19912;-66
2022/09/01 12:31:52;;;;;;;;;;;23.30;99.90;;;;;;5069610;28;20384;-66
2022/09/01 12:34:33;;;;;;;;;;;23.20;99.90;;;;;;5070686;28;19908;-66
2022/09/01 12:37:17;;;;;;;;;;;23.30;99.90;;;;;;5067904;28;19916;-67
2022/09/01 12:39:44;;;;;;;;;;;23.40;99.90;;;;;;5065296;28;20374;-67
2022/09/01 12:42:31;;;;;;;;;;;23.50;99.90;;;;;;5069040;28;19909;-66
2022/09/01 12:45:01;;;;;;;;;;;23.30;99.90;;;;;;5070017;28;19919;-66
2022/09/01 12:47:33;;;;;;;;;;;23.10;99.90;;;;;;5070667;28;19908;-69
2022/09/01 12:50:00;;;;;;;;;;;23.00;99.90;;;;;;5067331;28;20282;-66
2022/09/01 12:52:29;;;;;;;;;;;23.10;99.90;;;;;;5047811;28;20426;-67
2022/09/01 12:54:57;;;;;;;;;;;23.20;99.90;;;;;;5064725;28;19908;-67
2022/09/01 12:57:26;;;;;;;;;;;23.40;99.90;;;;;;5069340;28;20293;-68
2022/09/01 13:00:24;;;;;;;;;;;23.00;99.90;;;;;;5068347;28;19904;-68
2022/09/01 13:02:56;;;;;;;;;;;23.00;99.90;;;;;;5018444;28;19968;-69
2022/09/01 13:05:21;;;;;;;;;;;23.10;99.90;;;;;;5063251;28;19963;-68
2022/09/01 13:07:47;;;;;;;;;;;22.90;99.90;;;;;;5068479;28;19912;-67
2022/09/01 13:10:13;;;;;;;;;;;22.90;99.90;;;;;;5064118;28;20022;-68
2022/09/01 13:12:43;;;;;;;;;;;23.00;99.90;;;;;;5062871;28;19916;-68
2022/09/01 13:15:09;;;;;;;;;;;23.00;99.90;;;;;;5067850;28;19912;-70
2022/09/01 13:17:36;;;;;;;;;;;23.00;99.90;;;;;;5062707;28;19990;-69
2022/09/01 13:20:02;;;;;;;;;;;23.20;99.90;;;;;;5078889;28;19908;-65
2022/09/01 13:22:28;;;;;;;;;;;23.10;99.90;;;;;;5071436;28;19916;-66
2022/09/01 13:24:53;;;;;;;;;;;23.20;99.90;;;;;;5067492;28;19913;-67
2022/09/01 13:27:20;;;;;;;;;;;23.10;99.90;;;;;;5072712;28;20260;-68
2022/09/01 13:29:46;;;;;;;;;;;23.00;99.90;;;;;;5056999;28;20003;-67
2022/09/01 13:32:12;;;;;;;;;;;23.00;99.90;;;;;;5069087;28;20331;-67
2022/09/01 13:34:38;;;;;;;;;;;23.00;99.90;;;;;;5067828;28;19913;-66
2022/09/01 13:37:04;;;;;;;;;;;23.00;99.90;;;;;;5073156;28;19916;-67
2022/09/01 13:39:30;;;;;;;;;;;22.90;99.90;;;;;;5063054;28;19927;-68
2022/09/01 13:41:55;;;;;;;;;;;22.80;99.90;;;;;;5065220;28;20422;-66
2022/09/01 13:44:21;;;;;;;;;;;22.80;99.90;;;;;;5080423;28;19907;-68
2022/09/01 13:46:46;;;;;;;;;;;23.00;99.90;;;;;;5086106;28;19909;-69
2022/09/01 13:49:12;;;;;;;;;;;22.80;99.90;;;;;;5073523;28;20370;-69
2022/09/01 13:51:39;;;;;;;;;;;22.80;99.90;;;;;;5075634;28;20002;-67
2022/09/01 13:54:04;;;;;;;;;;;22.60;99.90;;;;;;5074610;28;20390;-69
2022/09/01 13:56:30;;;;;;;;;;;22.60;99.90;;;;;;5068651;28;19959;-72
2022/09/01 13:58:56;;;;;;;;;;;22.50;99.90;;;;;;5067613;28;19920;-68
2022/09/01 14:01:21;;;;;;;;;;;22.70;99.90;;;;;;5067963;28;19920;-68
2022/09/01 14:03:48;;;;;;;;;;;22.80;99.90;;;;;;5067050;28;19914;-69
2022/09/01 14:06:14;;;;;;;;;;;22.90;99.90;;;;;;5077767;28;19908;-68
2022/09/01 14:08:40;;;;;;;;;;;22.90;99.90;;;;;;5071883;28;19909;-66
2022/09/01 14:11:05;;;;;;;;;;;23.00;99.90;;;;;;5071156;28;19987;-69
2022/09/01 14:13:31;;;;;;;;;;;22.90;99.90;;;;;;5069452;28;19918;-67
2022/09/01 14:15:57;;;;;;;;;;;22.90;99.90;;;;;;5071754;28;19966;-68
2022/09/01 14:18:35;;;;;;;;;;;23.10;99.90;;;;;;5065582;28;19909;-69
2022/09/01 14:21:01;;;;;;;;;;;23.00;99.90;;;;;;5065935;28;19908;-66
2022/09/01 14:23:27;;;;;;;;;;;23.00;99.90;;;;;;5054265;28;20335;-68
2022/09/01 14:25:53;;;;;;;;;;;22.80;99.90;;;;;;5065315;28;19908;-67
2022/09/01 14:28:20;;;;;;;;;;;22.80;99.90;;;;;;5067834;28;19912;-69